Kinjyu Maru — JD3091 — position and weather

sailwx.info

Track history (hours):
 
Tides and Currents Weather Stations Pressure Air Temp Water Temp Dewpoint Dewpoint Depression Visibility Wind Speed Wind Dir Waves Ship Positions

Kinjyu Maru

Last reported at 2018-Feb-20 11:04 UTC. Time now 2018-Feb-20 11:56 UTC.
Position N 33°34' E 129°55'.

Length 59 m; draft 4 m.

Type: Cargo ship. MMSI: 431001588.

Date/timePositionNaut miles runAvg speedWind from/ knotsBaromVisibWave heightAir tempDewpointWater temp
2018-Feb-20 11:04N 33°34' E 129°55'210.5
2018-Feb-20 10:52N 33°35' E 129°57'410.3
2018-Feb-20 10:30N 33°37' E 130°02'610.1
2018-Feb-20 09:55N 33°39' E 130°08'410.1
2018-Feb-20 09:30N 33°42' E 130°12'510.0
2018-Feb-20 09:00N 33°45' E 130°16'510.1
2018-Feb-20 08:30N 33°48' E 130°21'5 9.9
2018-Feb-20 08:00N 33°52' E 130°25'5 9.4
2018-Feb-20 07:30N 33°55' E 130°29'5 9.8
2018-Feb-20 07:00N 33°57' E 130°35'5 9.5
2018-Feb-20 06:30N 33°58' E 130°40'5 9.7
2018-Feb-20 06:00N 33°58' E 130°46'5 9.8
2018-Feb-20 05:30N 33°57' E 130°52'4 7.1
2018-Feb-20 05:01N 33°56' E 130°56'510.0
2018-Feb-20 04:30N 33°58' E 131°02'510.1
2018-Feb-20 04:00N 33°56' E 131°07'510.0
2018-Feb-20 03:30N 33°53' E 131°12'5 9.9
2018-Feb-20 03:00N 33°50' E 131°17'510.1
2018-Feb-20 02:30N 33°48' E 131°23'510.3
2018-Feb-20 02:00N 33°46' E 131°28'510.2
2018-Feb-20 01:31N 33°44' E 131°34'510.5
2018-Feb-20 01:00N 33°42' E 131°39'510.3
2018-Feb-20 00:30N 33°38' E 131°44'611.1
2018-Feb-20 00:00N 33°34' E 131°47'611.4
2018-Feb-19 23:29N 33°28' E 131°46'510.7
2018-Feb-19 23:00N 33°23' E 131°44'5 9.9
2018-Feb-19 22:29N 33°18' E 131°41'2 0.3
2018-Feb-19 13:46N 33°16' E 131°40'0 0.0
2018-Feb-19 13:28N 33°16' E 131°40'0 0.0
2018-Feb-19 10:22N 33°16' E 131°40'410.6
2018-Feb-19 10:00N 33°20' E 131°41'4 3.1
2018-Feb-19 08:45N 33°24' E 131°42'0 0.0
2018-Feb-19 08:24N 33°24' E 131°42'0 0.1
2018-Feb-19 07:54N 33°24' E 131°42'0 0.0
2018-Feb-19 07:24N 33°24' E 131°42'0 0.0
2018-Feb-19 06:57N 33°24' E 131°42'0 0.1
2018-Feb-19 06:24N 33°24' E 131°42'0 0.1
2018-Feb-19 06:00N 33°24' E 131°42'0 0.0
2018-Feb-19 05:30N 33°24' E 131°42'0 0.0
2018-Feb-19 04:57N 33°24' E 131°42'0 0.1
2018-Feb-19 04:30N 33°24' E 131°42'0 0.0
2018-Feb-19 03:57N 33°24' E 131°42'0 0.0
2018-Feb-19 03:30N 33°24' E 131°42'0 0.1
2018-Feb-19 03:00N 33°24' E 131°42'0 0.0
2018-Feb-19 02:30N 33°24' E 131°42'0 0.0
2018-Feb-19 02:00N 33°24' E 131°42'0 0.0
2018-Feb-19 01:24N 33°24' E 131°42'0 0.0
2018-Feb-19 01:00N 33°24' E 131°42'0 0.0
2018-Feb-19 00:12N 33°24' E 131°42'0 0.0
2018-Feb-19 00:00N 33°24' E 131°42'0 0.0
2018-Feb-18 23:18N 33°24' E 131°42'0 0.0
2018-Feb-18 23:00N 33°24' E 131°42'0 0.1
2018-Feb-18 22:30N 33°24' E 131°42'0 0.0
2018-Feb-18 22:00N 33°24' E 131°42'0 0.0
2018-Feb-18 21:30N 33°24' E 131°42'0 0.0
2018-Feb-18 21:00N 33°24' E 131°42'0 0.1
2018-Feb-18 20:30N 33°24' E 131°42'0 0.1
2018-Feb-18 20:00N 33°24' E 131°42'0 0.0
2018-Feb-18 19:30N 33°24' E 131°42'0 0.1
2018-Feb-18 19:00N 33°24' E 131°42'4 4.8
2018-Feb-18 18:15N 33°26' E 131°45'312.5
2018-Feb-18 18:00N 33°29' E 131°47'612.6
2018-Feb-18 17:30N 33°35' E 131°47'612.9
2018-Feb-18 17:00N 33°40' E 131°42'713.1
2018-Feb-18 16:30N 33°43' E 131°35'612.0
2018-Feb-18 16:00N 33°45' E 131°28'612.0
2018-Feb-18 15:30N 33°46' E 131°21'611.7
2018-Feb-18 15:00N 33°47' E 131°14'611.5
2018-Feb-18 14:30N 33°48' E 131°07'510.7
2018-Feb-18 14:00N 33°48' E 131°01'1 2.8
2018-Feb-18 13:30N 33°48' E 130°59'0 0.0
2018-Feb-18 13:00N 33°48' E 130°59'0 0.0
2018-Feb-18 12:30N 33°48' E 130°59'0 0.0
2018-Feb-18 11:54N 33°48' E 130°59'0 0.0
2018-Feb-18 11:30N 33°48' E 130°59'0 0.0
2018-Feb-18 11:00N 33°48' E 130°59'0 0.0
2018-Feb-18 10:30N 33°48' E 130°59'0 0.0
2018-Feb-18 10:00N 33°48' E 130°59'0 0.0
2018-Feb-18 08:48N 33°48' E 130°59'0 0.0
2018-Feb-18 08:30N 33°48' E 130°59'0 0.0
2018-Feb-18 08:00N 33°48' E 130°59'0 0.0
2018-Feb-18 07:30N 33°48' E 130°59'0 0.0
2018-Feb-18 06:09N 33°48' E 130°59'0 0.0
2018-Feb-18 05:57N 33°48' E 130°59'0 0.0
2018-Feb-18 05:04N 33°48' E 130°59'0 0.0
2018-Feb-18 05:00N 33°48' E 130°59'4 7.6
2018-Feb-18 04:30N 33°49' E 131°03'611.2
2018-Feb-18 04:00N 33°55' E 131°02'4 8.7
2018-Feb-18 03:30N 33°58' E 130°59'4 8.1
2018-Feb-18 03:01N 33°55' E 130°56'3 5.3
2018-Feb-18 02:31N 33°55' E 130°53'1 1.8
2018-Feb-18 01:59N 33°55' E 130°52'0 0.0
2018-Feb-18 01:29N 33°55' E 130°52'0 0.0
2018-Feb-18 00:59N 33°55' E 130°52'0 0.0
2018-Feb-18 00:29N 33°55' E 130°52'0 0.0
2018-Feb-17 23:59N 33°55' E 130°52'0 0.0
2018-Feb-17 23:29N 33°55' E 130°52'0 0.0
2018-Feb-17 22:59N 33°55' E 130°52'1 1.7
2018-Feb-17 22:29N 33°54' E 130°51'0 0.0
2018-Feb-17 21:58N 33°54' E 130°51'0 0.0
2018-Feb-17 21:29N 33°54' E 130°51'0 0.0
2018-Feb-17 20:59N 33°54' E 130°51'0 0.0
2018-Feb-17 20:29N 33°54' E 130°51'0 0.0
2018-Feb-17 19:59N 33°54' E 130°51'0 0.0
2018-Feb-17 19:29N 33°54' E 130°51'0 0.0
2018-Feb-17 18:59N 33°54' E 130°51'0 0.0
2018-Feb-17 18:29N 33°54' E 130°51'0 0.0
2018-Feb-17 17:59N 33°54' E 130°51'0 0.0
2018-Feb-17 17:29N 33°54' E 130°51'0 0.0
2018-Feb-17 16:59N 33°54' E 130°51'0 0.0
2018-Feb-17 16:29N 33°54' E 130°51'0 0.0
2018-Feb-17 15:58N 33°54' E 130°51'0 0.0
2018-Feb-17 15:29N 33°54' E 130°51'0 0.0
2018-Feb-17 14:58N 33°54' E 130°51'0 0.0
2018-Feb-17 14:28N 33°54' E 130°51'0 0.0
2018-Feb-17 13:59N 33°54' E 130°51'0 0.0
2018-Feb-17 13:29N 33°54' E 130°51'0 0.0
2018-Feb-17 12:59N 33°54' E 130°51'0 0.0
2018-Feb-17 12:28N 33°54' E 130°51'0 0.0
2018-Feb-17 11:59N 33°54' E 130°51'0 0.0
2018-Feb-17 11:29N 33°54' E 130°51'0 0.0
2018-Feb-17 10:59N 33°54' E 130°51'0 0.0
2018-Feb-17 10:28N 33°54' E 130°51'0 0.0
2018-Feb-17 09:59N 33°54' E 130°51'0 0.0
2018-Feb-17 09:29N 33°54' E 130°51'0 0.0
2018-Feb-17 08:59N 33°54' E 130°51'0 0.0
2018-Feb-17 08:29N 33°54' E 130°51'0 0.0
2018-Feb-17 07:59N 33°54' E 130°51'0 0.0
2018-Feb-17 07:29N 33°54' E 130°51'0 0.0
2018-Feb-17 06:59N 33°54' E 130°51'0 0.0
2018-Feb-17 06:28N 33°54' E 130°51'0 0.0
2018-Feb-17 05:58N 33°54' E 130°51'0 0.0
2018-Feb-17 05:28N 33°54' E 130°51'0 0.0
2018-Feb-17 04:58N 33°54' E 130°51'0 0.0
2018-Feb-17 04:29N 33°54' E 130°51'0 0.0
2018-Feb-17 03:59N 33°54' E 130°51'0 0.0
2018-Feb-17 03:28N 33°54' E 130°51'0 0.0
2018-Feb-17 02:58N 33°54' E 130°51'0 0.0
2018-Feb-17 02:28N 33°54' E 130°51'0 0.0
2018-Feb-17 01:58N 33°54' E 130°51'0 0.0
2018-Feb-17 01:28N 33°54' E 130°51'0 0.0
2018-Feb-17 00:59N 33°54' E 130°51'0 0.0
2018-Feb-17 00:28N 33°54' E 130°51'0 0.0
2018-Feb-16 23:58N 33°54' E 130°51'0 0.0
2018-Feb-16 23:29N 33°54' E 130°51'0 0.0
2018-Feb-16 23:00N 33°54' E 130°51'2 3.6
2018-Feb-16 22:31N 33°55' E 130°53'1 2.4
2018-Feb-16 22:00N 33°54' E 130°52'0 0.0
2018-Feb-16 21:30N 33°54' E 130°52'0 0.0
2018-Feb-16 21:00N 33°54' E 130°52'0 0.0
2018-Feb-16 20:30N 33°54' E 130°52'0 0.0
2018-Feb-16 20:00N 33°54' E 130°52'0 0.0
2018-Feb-16 19:30N 33°54' E 130°52'0 0.0
2018-Feb-16 19:00N 33°54' E 130°52'0 0.0
2018-Feb-16 18:30N 33°54' E 130°52'0 0.0
2018-Feb-16 18:00N 33°54' E 130°52'0 0.0
2018-Feb-16 17:30N 33°54' E 130°52'0 0.0
2018-Feb-16 17:00N 33°54' E 130°52'0 0.0
2018-Feb-16 16:24N 33°54' E 130°52'0 0.0
2018-Feb-16 16:00N 33°54' E 130°52'0 0.0
2018-Feb-16 15:30N 33°54' E 130°52'0 0.0
2018-Feb-16 14:57N 33°54' E 130°52'0 0.0
2018-Feb-16 14:30N 33°54' E 130°52'0 0.0
2018-Feb-16 13:57N 33°54' E 130°52'0 0.0
2018-Feb-16 13:21N 33°54' E 130°52'0 0.0
2018-Feb-16 13:00N 33°54' E 130°52'0 0.0
2018-Feb-16 12:30N 33°54' E 130°52'0 0.0
2018-Feb-16 12:00N 33°54' E 130°52'0 0.0
2018-Feb-16 11:27N 33°54' E 130°52'0 0.0
2018-Feb-16 10:57N 33°54' E 130°52'0 0.0
2018-Feb-16 10:21N 33°54' E 130°52'0 0.0
2018-Feb-16 09:57N 33°54' E 130°52'0 0.0
2018-Feb-16 09:30N 33°54' E 130°52'0 0.0
2018-Feb-16 09:00N 33°54' E 130°52'0 0.0
2018-Feb-16 08:27N 33°54' E 130°52'0 0.0
2018-Feb-16 08:00N 33°54' E 130°52'0 0.0
2018-Feb-16 07:27N 33°54' E 130°52'0 0.0
2018-Feb-16 07:00N 33°54' E 130°52'0 0.0
2018-Feb-16 06:30N 33°54' E 130°52'0 0.0
2018-Feb-16 06:00N 33°54' E 130°52'0 0.0
2018-Feb-16 05:30N 33°54' E 130°52'0 0.0
2018-Feb-16 04:54N 33°54' E 130°52'0 0.0
2018-Feb-16 04:30N 33°54' E 130°52'0 0.0
2018-Feb-16 04:00N 33°54' E 130°52'2 3.3
2018-Feb-16 03:30N 33°54' E 130°54'611.4
2018-Feb-16 03:00N 33°59' E 130°59'510.1
2018-Feb-16 02:30N 33°57' E 131°05'510.1
2018-Feb-16 02:00N 33°54' E 131°10'5 9.8
2018-Feb-16 01:30N 33°52' E 131°15'510.2
2018-Feb-16 01:00N 33°51' E 131°21'510.3
2018-Feb-16 00:30N 33°51' E 131°28'610.5
2018-Feb-15 23:58N 33°50' E 131°34'510.5
2018-Feb-15 23:30N 33°49' E 131°40'710.6
2018-Feb-15 22:51N 33°47' E 131°48'1110.2
2018-Feb-15 21:47N 33°46' E 132°01'3 9.8
2018-Feb-15 21:29N 33°46' E 132°04'5 9.9
2018-Feb-15 20:56N 33°49' E 132°10'15 9.4
2018-Feb-15 19:19N 33°54' E 132°28'610.9
2018-Feb-15 18:46N 33°58' E 132°33'311.6
2018-Feb-15 18:29N 34°00' E 132°36'93 9.7
2018-Feb-15 08:55N 34°22' E 134°25'510.2
2018-Feb-15 08:27N 34°20' E 134°30'510.6
2018-Feb-15 08:00N 34°17' E 134°35'610.3
2018-Feb-15 07:27N 34°13' E 134°40'13 9.6
2018-Feb-15 06:08N 34°03' E 134°49'8 9.9
2018-Feb-15 05:19N 33°57' E 134°55'6 9.8
2018-Feb-15 04:40N 33°52' E 135°00'2 9.2
2018-Feb-15 04:28N 33°51' E 135°02'198 7.7
2018-Feb-14 02:38N 34°36' E 138°54'1 5.9
2018-Feb-14 02:30N 34°36' E 138°55'3 6.8
2018-Feb-14 02:00N 34°38' E 138°59'13 8.8
2018-Feb-14 00:31N 34°48' E 139°09'17 9.4
2018-Feb-13 22:42N 34°59' E 139°24'3 9.0
2018-Feb-13 22:21N 35°01' E 139°27'3 9.1
2018-Feb-13 22:00N 35°03' E 139°31'5 9.9
2018-Feb-13 21:30N 35°05' E 139°36'510.3
2018-Feb-13 21:00N 35°07' E 139°42'510.0
2018-Feb-13 20:30N 35°11' E 139°45'5 9.5
2018-Feb-13 20:01N 35°16' E 139°46'5 9.5
2018-Feb-13 19:31N 35°20' E 139°43'3 6.1
2018-Feb-13 19:00N 35°22' E 139°40'0 0.0
2018-Feb-13 18:28N 35°22' E 139°40'0 0.0
2018-Feb-13 18:00N 35°22' E 139°40'0 0.0
2018-Feb-13 17:30N 35°22' E 139°40'0 0.1
2018-Feb-13 17:00N 35°22' E 139°40'0 0.0
2018-Feb-13 16:30N 35°22' E 139°40'0 0.0
2018-Feb-13 16:00N 35°22' E 139°40'0 0.0
2018-Feb-13 15:30N 35°22' E 139°40'0 0.0
2018-Feb-13 15:00N 35°22' E 139°40'0 0.0
2018-Feb-13 14:30N 35°22' E 139°40'0 0.0
2018-Feb-13 14:00N 35°22' E 139°40'0 0.0
2018-Feb-13 13:30N 35°22' E 139°40'0 0.0
2018-Feb-13 13:00N 35°22' E 139°40'0 0.0
2018-Feb-13 12:30N 35°22' E 139°40'0 0.0
2018-Feb-13 12:00N 35°22' E 139°40'0 0.1
2018-Feb-13 11:30N 35°22' E 139°40'0 0.0
2018-Feb-13 11:00N 35°22' E 139°40'0 0.0
2018-Feb-13 10:30N 35°22' E 139°40'0 0.0
2018-Feb-13 10:00N 35°22' E 139°40'0 0.0
2018-Feb-13 09:30N 35°22' E 139°40'0 0.0
2018-Feb-13 09:00N 35°22' E 139°40'0 0.0
2018-Feb-13 08:30N 35°22' E 139°40'0 0.0
2018-Feb-13 08:00N 35°22' E 139°40'0 0.0
2018-Feb-13 07:30N 35°22' E 139°40'0 0.0
2018-Feb-13 07:00N 35°22' E 139°40'0 0.0
2018-Feb-13 06:30N 35°22' E 139°40'0 0.0
2018-Feb-13 06:00N 35°22' E 139°40'0 0.0
2018-Feb-13 05:30N 35°22' E 139°40'0 0.0
2018-Feb-13 05:00N 35°22' E 139°40'0 0.0
2018-Feb-13 04:30N 35°22' E 139°40'0 0.0
2018-Feb-13 04:00N 35°22' E 139°40'0 0.0
2018-Feb-13 03:30N 35°22' E 139°40'0 0.0
2018-Feb-13 03:00N 35°22' E 139°40'0 0.0
2018-Feb-13 02:30N 35°22' E 139°40'0 0.0
2018-Feb-13 02:00N 35°22' E 139°40'0 0.0
2018-Feb-13 01:30N 35°22' E 139°40'0 0.0
2018-Feb-13 01:00N 35°22' E 139°40'0 0.0
2018-Feb-13 00:27N 35°22' E 139°40'1 3.0
2018-Feb-13 00:00N 35°23' E 139°42'5 9.5
2018-Feb-12 23:30N 35°27' E 139°46'5 9.2
2018-Feb-12 22:59N 35°30' E 139°49'6 9.0
2018-Feb-12 22:19N 35°36' E 139°50'  
Track history (hours):
 
Tides and Currents Weather Stations Pressure Air Temp Water Temp Dewpoint Dewpoint Depression Visibility Wind Speed Wind Dir Waves Ship Positions

Kinjyu Maru

Last reported at 2018-Feb-20 11:04 UTC. Time now 2018-Feb-20 11:56 UTC.
Position N 33°34' E 129°55'.

Length 59 m; draft 4 m.

Type: Cargo ship. MMSI: 431001588.

Date/timePositionNaut miles runAvg speedWind from/ knotsBaromVisibWave heightAir tempDewpointWater temp
2018-Feb-20 11:04N 33°34' E 129°55'210.5
2018-Feb-20 10:52N 33°35' E 129°57'410.3
2018-Feb-20 10:30N 33°37' E 130°02'610.1
2018-Feb-20 09:55N 33°39' E 130°08'410.1
2018-Feb-20 09:30N 33°42' E 130°12'510.0
2018-Feb-20 09:00N 33°45' E 130°16'510.1
2018-Feb-20 08:30N 33°48' E 130°21'5 9.9
2018-Feb-20 08:00N 33°52' E 130°25'5 9.4
2018-Feb-20 07:30N 33°55' E 130°29'5 9.8
2018-Feb-20 07:00N 33°57' E 130°35'5 9.5
2018-Feb-20 06:30N 33°58' E 130°40'5 9.7
2018-Feb-20 06:00N 33°58' E 130°46'5 9.8
2018-Feb-20 05:30N 33°57' E 130°52'4 7.1
2018-Feb-20 05:01N 33°56' E 130°56'510.0
2018-Feb-20 04:30N 33°58' E 131°02'510.1
2018-Feb-20 04:00N 33°56' E 131°07'510.0
2018-Feb-20 03:30N 33°53' E 131°12'5 9.9
2018-Feb-20 03:00N 33°50' E 131°17'510.1
2018-Feb-20 02:30N 33°48' E 131°23'510.3
2018-Feb-20 02:00N 33°46' E 131°28'510.2
2018-Feb-20 01:31N 33°44' E 131°34'510.5
2018-Feb-20 01:00N 33°42' E 131°39'510.3
2018-Feb-20 00:30N 33°38' E 131°44'611.1
2018-Feb-20 00:00N 33°34' E 131°47'611.4
2018-Feb-19 23:29N 33°28' E 131°46'510.7
2018-Feb-19 23:00N 33°23' E 131°44'5 9.9
2018-Feb-19 22:29N 33°18' E 131°41'2 0.3
2018-Feb-19 13:46N 33°16' E 131°40'0 0.0
2018-Feb-19 13:28N 33°16' E 131°40'0 0.0
2018-Feb-19 10:22N 33°16' E 131°40'410.6
2018-Feb-19 10:00N 33°20' E 131°41'4 3.1
2018-Feb-19 08:45N 33°24' E 131°42'0 0.0
2018-Feb-19 08:24N 33°24' E 131°42'0 0.1
2018-Feb-19 07:54N 33°24' E 131°42'0 0.0
2018-Feb-19 07:24N 33°24' E 131°42'0 0.0
2018-Feb-19 06:57N 33°24' E 131°42'0 0.1
2018-Feb-19 06:24N 33°24' E 131°42'0 0.1
2018-Feb-19 06:00N 33°24' E 131°42'0 0.0
2018-Feb-19 05:30N 33°24' E 131°42'0 0.0
2018-Feb-19 04:57N 33°24' E 131°42'0 0.1
2018-Feb-19 04:30N 33°24' E 131°42'0 0.0
2018-Feb-19 03:57N 33°24' E 131°42'0 0.0
2018-Feb-19 03:30N 33°24' E 131°42'0 0.1
2018-Feb-19 03:00N 33°24' E 131°42'0 0.0
2018-Feb-19 02:30N 33°24' E 131°42'0 0.0
2018-Feb-19 02:00N 33°24' E 131°42'0 0.0
2018-Feb-19 01:24N 33°24' E 131°42'0 0.0
2018-Feb-19 01:00N 33°24' E 131°42'0 0.0
2018-Feb-19 00:12N 33°24' E 131°42'0 0.0
2018-Feb-19 00:00N 33°24' E 131°42'0 0.0
2018-Feb-18 23:18N 33°24' E 131°42'0 0.0
2018-Feb-18 23:00N 33°24' E 131°42'0 0.1
2018-Feb-18 22:30N 33°24' E 131°42'0 0.0
2018-Feb-18 22:00N 33°24' E 131°42'0 0.0
2018-Feb-18 21:30N 33°24' E 131°42'0 0.0
2018-Feb-18 21:00N 33°24' E 131°42'0 0.1
2018-Feb-18 20:30N 33°24' E 131°42'0 0.1
2018-Feb-18 20:00N 33°24' E 131°42'0 0.0
2018-Feb-18 19:30N 33°24' E 131°42'0 0.1
2018-Feb-18 19:00N 33°24' E 131°42'4 4.8
2018-Feb-18 18:15N 33°26' E 131°45'312.5
2018-Feb-18 18:00N 33°29' E 131°47'612.6
2018-Feb-18 17:30N 33°35' E 131°47'612.9
2018-Feb-18 17:00N 33°40' E 131°42'713.1
2018-Feb-18 16:30N 33°43' E 131°35'612.0
2018-Feb-18 16:00N 33°45' E 131°28'612.0
2018-Feb-18 15:30N 33°46' E 131°21'611.7
2018-Feb-18 15:00N 33°47' E 131°14'611.5
2018-Feb-18 14:30N 33°48' E 131°07'510.7
2018-Feb-18 14:00N 33°48' E 131°01'1 2.8
2018-Feb-18 13:30N 33°48' E 130°59'0 0.0
2018-Feb-18 13:00N 33°48' E 130°59'0 0.0
2018-Feb-18 12:30N 33°48' E 130°59'0 0.0
2018-Feb-18 11:54N 33°48' E 130°59'0 0.0
2018-Feb-18 11:30N 33°48' E 130°59'0 0.0
2018-Feb-18 11:00N 33°48' E 130°59'0 0.0
2018-Feb-18 10:30N 33°48' E 130°59'0 0.0
2018-Feb-18 10:00N 33°48' E 130°59'0 0.0
2018-Feb-18 08:48N 33°48' E 130°59'0 0.0
2018-Feb-18 08:30N 33°48' E 130°59'0 0.0
2018-Feb-18 08:00N 33°48' E 130°59'0 0.0
2018-Feb-18 07:30N 33°48' E 130°59'0 0.0
2018-Feb-18 06:09N 33°48' E 130°59'0 0.0
2018-Feb-18 05:57N 33°48' E 130°59'0 0.0
2018-Feb-18 05:04N 33°48' E 130°59'0 0.0
2018-Feb-18 05:00N 33°48' E 130°59'4 7.6
2018-Feb-18 04:30N 33°49' E 131°03'611.2
2018-Feb-18 04:00N 33°55' E 131°02'4 8.7
2018-Feb-18 03:30N 33°58' E 130°59'4 8.1
2018-Feb-18 03:01N 33°55' E 130°56'3 5.3
2018-Feb-18 02:31N 33°55' E 130°53'1 1.8
2018-Feb-18 01:59N 33°55' E 130°52'0 0.0
2018-Feb-18 01:29N 33°55' E 130°52'0 0.0
2018-Feb-18 00:59N 33°55' E 130°52'0 0.0
2018-Feb-18 00:29N 33°55' E 130°52'0 0.0
2018-Feb-17 23:59N 33°55' E 130°52'0 0.0
2018-Feb-17 23:29N 33°55' E 130°52'0 0.0
2018-Feb-17 22:59N 33°55' E 130°52'1 1.7
2018-Feb-17 22:29N 33°54' E 130°51'0 0.0
2018-Feb-17 21:58N 33°54' E 130°51'0 0.0
2018-Feb-17 21:29N 33°54' E 130°51'0 0.0
2018-Feb-17 20:59N 33°54' E 130°51'0 0.0
2018-Feb-17 20:29N 33°54' E 130°51'0 0.0
2018-Feb-17 19:59N 33°54' E 130°51'0 0.0
2018-Feb-17 19:29N 33°54' E 130°51'0 0.0
2018-Feb-17 18:59N 33°54' E 130°51'0 0.0
2018-Feb-17 18:29N 33°54' E 130°51'0 0.0
2018-Feb-17 17:59N 33°54' E 130°51'0 0.0
2018-Feb-17 17:29N 33°54' E 130°51'0 0.0
2018-Feb-17 16:59N 33°54' E 130°51'0 0.0
2018-Feb-17 16:29N 33°54' E 130°51'0 0.0
2018-Feb-17 15:58N 33°54' E 130°51'0 0.0
2018-Feb-17 15:29N 33°54' E 130°51'0 0.0
2018-Feb-17 14:58N 33°54' E 130°51'0 0.0
2018-Feb-17 14:28N 33°54' E 130°51'0 0.0
2018-Feb-17 13:59N 33°54' E 130°51'0 0.0
2018-Feb-17 13:29N 33°54' E 130°51'0 0.0
2018-Feb-17 12:59N 33°54' E 130°51'0 0.0
2018-Feb-17 12:28N 33°54' E 130°51'0 0.0
2018-Feb-17 11:59N 33°54' E 130°51'0 0.0
2018-Feb-17 11:29N 33°54' E 130°51'0 0.0
2018-Feb-17 10:59N 33°54' E 130°51'0 0.0
2018-Feb-17 10:28N 33°54' E 130°51'0 0.0
2018-Feb-17 09:59N 33°54' E 130°51'0 0.0
2018-Feb-17 09:29N 33°54' E 130°51'0 0.0
2018-Feb-17 08:59N 33°54' E 130°51'0 0.0
2018-Feb-17 08:29N 33°54' E 130°51'0 0.0
2018-Feb-17 07:59N 33°54' E 130°51'0 0.0
2018-Feb-17 07:29N 33°54' E 130°51'0 0.0
2018-Feb-17 06:59N 33°54' E 130°51'0 0.0
2018-Feb-17 06:28N 33°54' E 130°51'0 0.0
2018-Feb-17 05:58N 33°54' E 130°51'0 0.0
2018-Feb-17 05:28N 33°54' E 130°51'0 0.0
2018-Feb-17 04:58N 33°54' E 130°51'0 0.0
2018-Feb-17 04:29N 33°54' E 130°51'0 0.0
2018-Feb-17 03:59N 33°54' E 130°51'0 0.0
2018-Feb-17 03:28N 33°54' E 130°51'0 0.0
2018-Feb-17 02:58N 33°54' E 130°51'0 0.0
2018-Feb-17 02:28N 33°54' E 130°51'0 0.0
2018-Feb-17 01:58N 33°54' E 130°51'0 0.0
2018-Feb-17 01:28N 33°54' E 130°51'0 0.0
2018-Feb-17 00:59N 33°54' E 130°51'0 0.0
2018-Feb-17 00:28N 33°54' E 130°51'0 0.0
2018-Feb-16 23:58N 33°54' E 130°51'0 0.0
2018-Feb-16 23:29N 33°54' E 130°51'0 0.0
2018-Feb-16 23:00N 33°54' E 130°51'2 3.6
2018-Feb-16 22:31N 33°55' E 130°53'1 2.4
2018-Feb-16 22:00N 33°54' E 130°52'0 0.0
2018-Feb-16 21:30N 33°54' E 130°52'0 0.0
2018-Feb-16 21:00N 33°54' E 130°52'0 0.0
2018-Feb-16 20:30N 33°54' E 130°52'0 0.0
2018-Feb-16 20:00N 33°54' E 130°52'0 0.0
2018-Feb-16 19:30N 33°54' E 130°52'0 0.0
2018-Feb-16 19:00N 33°54' E 130°52'0 0.0
2018-Feb-16 18:30N 33°54' E 130°52'0 0.0
2018-Feb-16 18:00N 33°54' E 130°52'0 0.0
2018-Feb-16 17:30N 33°54' E 130°52'0 0.0
2018-Feb-16 17:00N 33°54' E 130°52'0 0.0
2018-Feb-16 16:24N 33°54' E 130°52'0 0.0
2018-Feb-16 16:00N 33°54' E 130°52'0 0.0
2018-Feb-16 15:30N 33°54' E 130°52'0 0.0
2018-Feb-16 14:57N 33°54' E 130°52'0 0.0
2018-Feb-16 14:30N 33°54' E 130°52'0 0.0
2018-Feb-16 13:57N 33°54' E 130°52'0 0.0
2018-Feb-16 13:21N 33°54' E 130°52'0 0.0
2018-Feb-16 13:00N 33°54' E 130°52'0 0.0
2018-Feb-16 12:30N 33°54' E 130°52'0 0.0
2018-Feb-16 12:00N 33°54' E 130°52'0 0.0
2018-Feb-16 11:27N 33°54' E 130°52'0 0.0
2018-Feb-16 10:57N 33°54' E 130°52'0 0.0
2018-Feb-16 10:21N 33°54' E 130°52'0 0.0
2018-Feb-16 09:57N 33°54' E 130°52'0 0.0
2018-Feb-16 09:30N 33°54' E 130°52'0 0.0
2018-Feb-16 09:00N 33°54' E 130°52'0 0.0
2018-Feb-16 08:27N 33°54' E 130°52'0 0.0
2018-Feb-16 08:00N 33°54' E 130°52'0 0.0
2018-Feb-16 07:27N 33°54' E 130°52'0 0.0
2018-Feb-16 07:00N 33°54' E 130°52'0 0.0
2018-Feb-16 06:30N 33°54' E 130°52'0 0.0
2018-Feb-16 06:00N 33°54' E 130°52'0 0.0
2018-Feb-16 05:30N 33°54' E 130°52'0 0.0
2018-Feb-16 04:54N 33°54' E 130°52'0 0.0
2018-Feb-16 04:30N 33°54' E 130°52'0 0.0
2018-Feb-16 04:00N 33°54' E 130°52'2 3.3
2018-Feb-16 03:30N 33°54' E 130°54'611.4
2018-Feb-16 03:00N 33°59' E 130°59'510.1
2018-Feb-16 02:30N 33°57' E 131°05'510.1
2018-Feb-16 02:00N 33°54' E 131°10'5 9.8
2018-Feb-16 01:30N 33°52' E 131°15'510.2
2018-Feb-16 01:00N 33°51' E 131°21'510.3
2018-Feb-16 00:30N 33°51' E 131°28'610.5
2018-Feb-15 23:58N 33°50' E 131°34'510.5
2018-Feb-15 23:30N 33°49' E 131°40'710.6
2018-Feb-15 22:51N 33°47' E 131°48'1110.2
2018-Feb-15 21:47N 33°46' E 132°01'3 9.8
2018-Feb-15 21:29N 33°46' E 132°04'5 9.9
2018-Feb-15 20:56N 33°49' E 132°10'15 9.4
2018-Feb-15 19:19N 33°54' E 132°28'610.9
2018-Feb-15 18:46N 33°58' E 132°33'311.6
2018-Feb-15 18:29N 34°00' E 132°36'93 9.7
2018-Feb-15 08:55N 34°22' E 134°25'510.2
2018-Feb-15 08:27N 34°20' E 134°30'510.6
2018-Feb-15 08:00N 34°17' E 134°35'610.3
2018-Feb-15 07:27N 34°13' E 134°40'13 9.6
2018-Feb-15 06:08N 34°03' E 134°49'8 9.9
2018-Feb-15 05:19N 33°57' E 134°55'6 9.8
2018-Feb-15 04:40N 33°52' E 135°00'2 9.2
2018-Feb-15 04:28N 33°51' E 135°02'198 7.7
2018-Feb-14 02:38N 34°36' E 138°54'1 5.9
2018-Feb-14 02:30N 34°36' E 138°55'3 6.8
2018-Feb-14 02:00N 34°38' E 138°59'13 8.8
2018-Feb-14 00:31N 34°48' E 139°09'17 9.4
2018-Feb-13 22:42N 34°59' E 139°24'3 9.0
2018-Feb-13 22:21N 35°01' E 139°27'3 9.1
2018-Feb-13 22:00N 35°03' E 139°31'5 9.9
2018-Feb-13 21:30N 35°05' E 139°36'510.3
2018-Feb-13 21:00N 35°07' E 139°42'510.0
2018-Feb-13 20:30N 35°11' E 139°45'5 9.5
2018-Feb-13 20:01N 35°16' E 139°46'5 9.5
2018-Feb-13 19:31N 35°20' E 139°43'3 6.1
2018-Feb-13 19:00N 35°22' E 139°40'0 0.0
2018-Feb-13 18:28N 35°22' E 139°40'0 0.0
2018-Feb-13 18:00N 35°22' E 139°40'0 0.0
2018-Feb-13 17:30N 35°22' E 139°40'0 0.1
2018-Feb-13 17:00N 35°22' E 139°40'0 0.0
2018-Feb-13 16:30N 35°22' E 139°40'0 0.0
2018-Feb-13 16:00N 35°22' E 139°40'0 0.0
2018-Feb-13 15:30N 35°22' E 139°40'0 0.0
2018-Feb-13 15:00N 35°22' E 139°40'0 0.0
2018-Feb-13 14:30N 35°22' E 139°40'0 0.0
2018-Feb-13 14:00N 35°22' E 139°40'0 0.0
2018-Feb-13 13:30N 35°22' E 139°40'0 0.0
2018-Feb-13 13:00N 35°22' E 139°40'0 0.0
2018-Feb-13 12:30N 35°22' E 139°40'0 0.0
2018-Feb-13 12:00N 35°22' E 139°40'0 0.1
2018-Feb-13 11:30N 35°22' E 139°40'0 0.0
2018-Feb-13 11:00N 35°22' E 139°40'0 0.0
2018-Feb-13 10:30N 35°22' E 139°40'0 0.0
2018-Feb-13 10:00N 35°22' E 139°40'0 0.0
2018-Feb-13 09:30N 35°22' E 139°40'0 0.0
2018-Feb-13 09:00N 35°22' E 139°40'0 0.0
2018-Feb-13 08:30N 35°22' E 139°40'0 0.0
2018-Feb-13 08:00N 35°22' E 139°40'0 0.0
2018-Feb-13 07:30N 35°22' E 139°40'0 0.0
2018-Feb-13 07:00N 35°22' E 139°40'0 0.0
2018-Feb-13 06:30N 35°22' E 139°40'0 0.0
2018-Feb-13 06:00N 35°22' E 139°40'0 0.0
2018-Feb-13 05:30N 35°22' E 139°40'0 0.0
2018-Feb-13 05:00N 35°22' E 139°40'0 0.0
2018-Feb-13 04:30N 35°22' E 139°40'0 0.0
2018-Feb-13 04:00N 35°22' E 139°40'0 0.0
2018-Feb-13 03:30N 35°22' E 139°40'0 0.0
2018-Feb-13 03:00N 35°22' E 139°40'0 0.0
2018-Feb-13 02:30N 35°22' E 139°40'0 0.0
2018-Feb-13 02:00N 35°22' E 139°40'0 0.0
2018-Feb-13 01:30N 35°22' E 139°40'0 0.0
2018-Feb-13 01:00N 35°22' E 139°40'0 0.0
2018-Feb-13 00:27N 35°22' E 139°40'1 3.0
2018-Feb-13 00:00N 35°23' E 139°42'5 9.5
2018-Feb-12 23:30N 35°27' E 139°46'5 9.2
2018-Feb-12 22:59N 35°30' E 139°49'6 9.0
2018-Feb-12 22:19N 35°36' E 139°50'  

Dump ship's entire track history